Time;durP1;ratioP1;P1;durP2;ratioP2;P2;SDS_P1;SDS_P2;PMS_P1;PMS_P2;Temp;Humidity;BMP_temperature;BMP_pressure;BME280_temperature;BME280_humidity;BME280_pressure;Samples;Min_cycle;Max_cycle;Signal;HPM_P1;HPM_P2
2022/01/09 00:02:15;;;;;;;;;33.50;30.75;;;;;11.45;76.03;100148.84;146597;586;46011;-81
2022/01/09 00:05:09;;;;;;;;;34.25;30.75;;;;;11.44;76.10;100150.56;146600;563;46020;-79
2022/01/09 00:08:01;;;;;;;;;39.25;33.75;;;;;11.43;76.14;100146.19;146597;630;47010;-80
2022/01/09 00:10:53;;;;;;;;;48.50;39.25;;;;;11.43;76.05;100145.28;146598;586;46914;-78
2022/01/09 00:13:47;;;;;;;;;46.25;37.00;;;;;11.42;76.28;100148.72;146599;586;46012;-80
2022/01/09 00:16:39;;;;;;;;;48.50;39.75;;;;;11.39;76.12;100148.59;146599;693;47008;-77
2022/01/09 00:19:32;;;;;;;;;53.25;43.00;;;;;11.38;76.58;100160.69;146598;569;46010;-76
2022/01/09 00:25:39;;;;;;;;;60.75;48.50;;;;;11.34;76.56;100161.41;146596;588;47010;-76
2022/01/09 00:28:32;;;;;;;;;58.75;47.00;;;;;11.36;77.69;100162.34;146603;575;45020;-77
2022/01/09 00:31:24;;;;;;;;;52.25;43.50;;;;;11.36;76.95;100167.53;146598;586;46027;-80
2022/01/09 00:34:16;;;;;;;;;55.25;43.75;;;;;11.34;77.47;100179.59;146601;604;46008;-81
2022/01/09 00:37:09;;;;;;;;;49.50;40.50;;;;;11.31;77.37;100169.97;146597;584;46011;-80
2022/01/09 00:40:01;;;;;;;;;54.00;43.00;;;;;11.32;76.96;100181.22;146602;707;46021;-82
2022/01/09 00:42:53;;;;;;;;;46.75;38.50;;;;;11.29;77.64;100176.78;146597;573;47010;-83
2022/01/09 00:45:46;;;;;;;;;43.75;36.75;;;;;11.24;77.39;100190.41;146603;642;46008;-83
2022/01/09 00:48:38;;;;;;;;;44.25;35.75;;;;;11.21;78.00;100191.16;146601;637;45916;-85
2022/01/09 00:51:31;;;;;;;;;48.00;38.25;;;;;11.18;77.27;100187.56;146600;788;46024;-86
2022/01/09 00:54:23;;;;;;;;;46.25;36.75;;;;;11.15;77.38;100180.53;146599;614;46016;-85
2022/01/09 00:57:15;;;;;;;;;43.00;34.00;;;;;11.17;77.17;100181.50;146598;575;47008;-81
2022/01/09 01:00:09;;;;;;;;;47.75;38.25;;;;;11.16;77.47;100179.72;146598;685;46017;-80
2022/01/09 01:03:02;;;;;;;;;47.50;35.25;;;;;11.18;77.46;100183.25;146602;599;46020;-79
2022/01/09 01:05:55;;;;;;;;;56.00;42.75;;;;;11.17;77.11;100171.12;146601;611;46010;-77
2022/01/09 01:08:47;;;;;;;;;68.25;51.50;;;;;11.20;76.93;100173.84;146602;677;46021;-79
2022/01/09 01:11:39;;;;;;;;;57.25;44.50;;;;;11.24;76.91;100173.13;146599;597;46010;-88
2022/01/09 01:14:32;;;;;;;;;42.50;36.25;;;;;11.27;77.93;100167.16;146604;591;46009;-85
2022/01/09 01:17:26;;;;;;;;;48.25;38.25;;;;;11.24;77.98;100165.34;146602;593;46016;-87
2022/01/09 01:20:21;;;;;;;;;43.00;34.00;;;;;11.18;77.77;100165.09;146599;563;47008;-85
2022/01/09 01:23:13;;;;;;;;;38.50;33.00;;;;;11.13;78.23;100166.63;146597;644;46017;-82
2022/01/09 01:26:05;;;;;;;;;36.75;32.00;;;;;11.07;77.83;100154.31;146601;579;46008;-84
2022/01/09 01:28:58;;;;;;;;;35.00;29.00;;;;;11.05;77.36;100149.88;146599;610;46010;-79
2022/01/09 01:31:50;;;;;;;;;36.75;32.25;;;;;11.05;78.74;100147.28;146603;574;46021;-80
2022/01/09 01:34:42;;;;;;;;;35.75;32.75;;;;;10.97;78.31;100144.38;146597;569;47010;-84
2022/01/09 01:37:38;;;;;;;;;39.25;34.50;;;;;10.91;78.00;100148.44;146604;639;46008;-88
2022/01/09 01:40:30;;;;;;;;;43.25;33.00;;;;;10.82;77.71;100141.16;146598;590;46016;-85
2022/01/09 01:43:22;;;;;;;;;37.75;32.75;;;;;10.78;77.46;100134.09;146604;574;46020;-81
2022/01/09 01:46:14;;;;;;;;;38.50;32.25;;;;;10.75;77.71;100124.47;146598;635;46029;-83
2022/01/09 01:49:10;;;;;;;;;37.00;31.50;;;;;10.75;77.30;100102.84;146601;581;46020;-74
2022/01/09 01:52:03;;;;;;;;;34.25;31.25;;;;;10.72;77.09;100097.53;146597;717;47012;-78
2022/01/09 01:54:55;;;;;;;;;31.75;29.00;;;;;10.67;77.11;100089.56;146602;565;46020;-79
2022/01/09 01:57:48;;;;;;;;;27.25;26.00;;;;;10.60;77.60;100084.97;146599;580;46016;-88
2022/01/09 02:00:42;;;;;;;;;30.75;28.25;;;;;10.54;77.33;100077.81;146601;658;46020;-77
2022/01/09 02:03:34;;;;;;;;;26.75;24.00;;;;;10.50;77.34;100073.34;146596;710;47916;-79
2022/01/09 02:06:27;;;;;;;;;28.50;25.00;;;;;10.45;77.58;100064.47;146601;595;46020;-78
2022/01/09 02:09:20;;;;;;;;;26.00;22.75;;;;;10.40;78.10;100065.97;146599;593;46016;-79
2022/01/09 02:12:13;;;;;;;;;25.25;19.50;;;;;10.31;78.71;100071.69;146600;603;46020;-78
2022/01/09 02:15:05;;;;;;;;;18.25;14.75;;;;;10.19;78.64;100076.31;146597;575;46010;-79
2022/01/09 02:17:57;;;;;;;;;12.00;12.00;;;;;10.12;78.48;100066.50;146600;598;47008;-79
2022/01/09 02:20:51;;;;;;;;;15.75;11.75;;;;;10.08;78.04;100049.06;146597;642;47011;-78
2022/01/09 02:23:45;;;;;;;;;9.00;8.50;;;;;10.05;77.38;100052.41;146601;583;46915;-76
2022/01/09 02:26:37;;;;;;;;;22.00;17.75;;;;;10.06;77.43;100049.00;146597;595;47010;-75
2022/01/09 02:29:29;;;;;;;;;22.25;19.50;;;;;10.06;76.81;100035.16;146601;646;46021;-77
2022/01/09 02:32:21;;;;;;;;;24.75;20.50;;;;;10.06;77.12;100033.47;146600;713;46012;-84
2022/01/09 02:35:14;;;;;;;;;18.50;18.25;;;;;10.08;77.25;100030.94;146604;615;46020;-84
2022/01/09 02:38:10;;;;;;;;;22.75;20.75;;;;;10.04;78.54;100040.28;146600;639;46016;-84
2022/01/09 02:41:02;;;;;;;;;23.50;21.00;;;;;9.94;77.45;100033.84;146601;569;46008;-83
2022/01/09 02:43:55;;;;;;;;;18.00;18.00;;;;;9.93;77.85;100028.56;146599;620;46017;-86
2022/01/09 02:47:00;;;;;;;;;16.00;14.50;;;;;9.95;77.47;100027.81;146603;593;46020;-83
2022/01/09 02:49:54;;;;;;;;;19.00;16.25;;;;;10.01;77.10;100028.91;146598;607;47010;-76
2022/01/09 02:52:53;;;;;;;;;15.25;14.00;;;;;10.07;77.19;100021.41;146604;572;46021;-77
2022/01/09 02:55:46;;;;;;;;;16.75;14.00;;;;;10.09;76.88;100028.41;146597;607;46025;-78
2022/01/09 02:58:39;;;;;;;;;14.00;12.50;;;;;10.06;76.24;100045.50;146601;564;46008;-83
2022/01/09 03:01:31;;;;;;;;;14.50;12.00;;;;;10.04;76.54;100050.66;146598;641;46016;-84
2022/01/09 03:04:23;;;;;;;;;10.50;9.50;;;;;10.04;76.23;100042.00;146601;585;46020;-82
2022/01/09 03:07:15;;;;;;;;;11.75;11.75;;;;;10.02;76.36;100047.09;146599;609;46016;-80
2022/01/09 03:10:08;;;;;;;;;15.00;12.75;;;;;9.99;77.11;100048.66;146601;563;46008;-76
2022/01/09 03:13:03;;;;;;;;;23.75;23.75;;;;;9.94;77.61;100046.78;146595;623;47012;-81
2022/01/09 03:15:55;;;;;;;;;20.50;19.00;;;;;9.94;77.19;100045.91;146603;593;46020;-77
2022/01/09 03:18:48;;;;;;;;;16.00;13.75;;;;;9.94;77.46;100046.78;146599;577;46010;-79
2022/01/09 03:21:40;;;;;;;;;13.00;12.50;;;;;9.95;77.64;100045.94;146601;581;47012;-80
2022/01/09 03:24:32;;;;;;;;;14.00;13.25;;;;;10.01;77.54;100045.34;146597;614;46916;-79
2022/01/09 03:27:25;;;;;;;;;16.00;14.75;;;;;10.06;77.22;100043.84;146600;613;46020;-77
2022/01/09 03:30:17;;;;;;;;;12.50;12.50;;;;;10.11;77.62;100042.31;146599;569;46016;-77
2022/01/09 03:33:09;;;;;;;;;13.75;11.25;;;;;10.13;77.91;100032.91;146603;598;46008;-77
2022/01/09 03:36:02;;;;;;;;;16.00;14.75;;;;;10.14;77.96;100026.87;146595;571;47010;-76
2022/01/09 03:38:54;;;;;;;;;17.00;15.00;;;;;9.28;78.21;99874.81;146606;569;46020;-82
2022/01/09 03:41:46;;;;;;;;;21.75;20.25;;;;;10.18;77.77;100023.59;146603;616;46010;-80
2022/01/09 03:44:38;;;;;;;;;18.00;15.50;;;;;10.22;78.29;100018.53;146604;638;46021;-81
2022/01/09 03:47:31;;;;;;;;;25.75;24.00;;;;;10.24;78.40;100017.78;146609;652;45916;-80
2022/01/09 03:50:23;;;;;;;;;23.00;21.25;;;;;10.25;78.31;100018.66;146606;612;46021;-81
2022/01/09 03:53:15;;;;;;;;;16.50;15.25;;;;;10.25;78.29;100021.25;146604;620;46010;-80
2022/01/09 03:56:08;;;;;;;;;18.75;15.75;;;;;10.28;78.16;100024.00;146605;569;46020;-81
2022/01/09 03:59:01;;;;;;;;;22.75;17.00;;;;;10.28;77.87;100019.75;146600;581;47010;-81
2022/01/09 04:01:54;;;;;;;;;18.00;16.75;;;;;10.28;77.71;100021.41;146608;611;46020;-86
2022/01/09 04:04:46;;;;;;;;;13.75;13.00;;;;;10.29;77.79;100021.50;146602;567;46916;-85
2022/01/09 04:07:38;;;;;;;;;19.75;17.75;;;;;10.27;78.07;100017.94;146608;659;46020;-80
2022/01/09 04:10:32;;;;;;;;;19.50;17.00;;;;;10.25;77.55;100024.75;146602;586;46016;-80
2022/01/09 04:13:24;;;;;;;;;18.75;15.50;;;;;10.21;79.32;100027.16;146607;602;46020;-81
2022/01/09 04:16:17;;;;;;;;;15.00;13.50;;;;;10.12;78.52;100027.63;146605;592;46916;-84
2022/01/09 04:19:13;;;;;;;;;21.25;19.50;;;;;10.09;79.17;100038.78;146609;611;45020;-85
2022/01/09 04:22:06;;;;;;;;;34.75;28.25;;;;;10.08;78.65;100044.75;146602;689;46016;-85
2022/01/09 04:24:58;;;;;;;;;29.75;25.00;;;;;10.10;78.54;100039.66;146603;683;46008;-84
2022/01/09 04:27:51;;;;;;;;;31.50;26.25;;;;;10.15;78.48;100038.13;146603;638;46017;-84
2022/01/09 04:30:44;;;;;;;;;24.75;21.50;;;;;10.20;77.96;100028.84;146607;632;47008;-85
2022/01/09 04:33:39;;;;;;;;;29.00;27.50;;;;;10.23;77.89;100030.69;146604;577;46916;-84
2022/01/09 04:36:32;;;;;;;;;31.75;27.25;;;;;10.27;77.19;100030.03;146604;584;46021;-84
2022/01/09 04:39:24;;;;;;;;;26.00;21.00;;;;;10.27;77.25;100036.09;146598;668;46016;-84
2022/01/09 04:42:16;;;;;;;;;33.25;32.00;;;;;10.28;77.07;100032.69;146602;595;47008;-83
2022/01/09 04:45:09;;;;;;;;;39.75;32.75;;;;;10.29;77.01;100038.75;146596;612;46016;-84
2022/01/09 04:48:05;;;;;;;;;38.00;32.00;;;;;10.30;77.23;100033.63;146603;568;46020;-83
2022/01/09 04:50:58;;;;;;;;;31.25;28.25;;;;;10.34;77.24;100043.31;146596;575;46017;-77
2022/01/09 04:53:50;;;;;;;;;42.00;35.00;;;;;10.36;76.98;100036.47;146601;641;47008;-78
2022/01/09 04:56:42;;;;;;;;;28.75;27.00;;;;;10.39;77.17;100038.31;146600;571;46016;-78
2022/01/09 04:59:34;;;;;;;;;43.00;35.75;;;;;10.40;76.83;100035.78;146602;585;46020;-79
2022/01/09 05:02:27;;;;;;;;;27.00;23.00;;;;;10.39;77.39;100031.41;146597;616;47010;-78
2022/01/09 05:05:20;;;;;;;;;25.00;21.00;;;;;10.37;77.76;100027.88;146603;589;46021;-82
2022/01/09 05:08:12;;;;;;;;;24.75;22.75;;;;;10.33;77.76;100023.37;146597;563;46016;-79
2022/01/09 05:11:05;;;;;;;;;29.00;26.25;;;;;10.30;77.78;100023.25;146603;593;46020;-79
2022/01/09 05:13:57;;;;;;;;;29.75;27.25;;;;;10.31;77.99;100024.13;146600;626;46016;-79
2022/01/09 05:16:50;;;;;;;;;24.00;20.50;;;;;10.32;78.15;100018.16;146603;569;46020;-80
2022/01/09 05:19:43;;;;;;;;;23.00;19.75;;;;;10.30;78.58;100022.38;146600;598;46917;-81
2022/01/09 05:22:35;;;;;;;;;19.50;18.75;;;;;10.27;78.89;100017.94;146601;570;46020;-84
2022/01/09 05:25:27;;;;;;;;;16.25;15.00;;;;;10.26;79.40;100015.28;146598;602;47010;-83
2022/01/09 05:28:19;;;;;;;;;19.25;18.50;;;;;10.21;79.00;100012.47;146603;586;47008;-88
2022/01/09 05:31:12;;;;;;;;;22.25;20.25;;;;;10.23;78.65;100018.62;146599;579;46016;-87
2022/01/09 05:34:04;;;;;;;;;22.50;17.50;;;;;10.27;78.44;100011.88;146602;630;46021;-82
2022/01/09 05:36:56;;;;;;;;;43.00;34.75;;;;;10.31;78.30;100014.69;146597;571;47019;-78
2022/01/09 05:39:49;;;;;;;;;26.00;22.50;;;;;10.36;78.34;100014.84;146601;605;46008;-86
2022/01/09 05:42:41;;;;;;;;;42.50;34.00;;;;;10.39;78.28;100009.78;146597;585;47010;-77
2022/01/09 05:45:34;;;;;;;;;29.50;26.00;;;;;10.43;78.00;100015.97;146601;570;46020;-74
2022/01/09 05:48:26;;;;;;;;;31.25;28.75;;;;;10.44;78.03;100008.28;146596;636;46916;-76
2022/01/09 05:51:18;;;;;;;;;22.50;19.00;;;;;10.45;78.21;100010.03;146599;628;46008;-85
2022/01/09 05:54:11;;;;;;;;;22.50;20.00;;;;;10.46;78.16;100000.56;146597;566;47009;-81
2022/01/09 05:57:03;;;;;;;;;20.75;18.50;;;;;10.42;77.90;100007.31;146603;569;46021;-83
2022/01/09 05:59:55;;;;;;;;;21.75;18.00;;;;;10.41;78.58;100002.97;146601;620;46916;-84
2022/01/09 06:02:47;;;;;;;;;62.50;46.25;;;;;10.39;78.91;99994.25;146603;617;46020;-80
2022/01/09 06:05:40;;;;;;;;;36.75;30.75;;;;;10.37;78.66;99994.19;146599;612;46017;-82
2022/01/09 06:08:32;;;;;;;;;25.75;22.25;;;;;10.36;79.23;99997.59;146599;593;47008;-79
2022/01/09 06:11:24;;;;;;;;;31.75;28.25;;;;;10.35;79.04;99994.97;146596;569;47011;-81
2022/01/09 06:14:17;;;;;;;;;28.25;23.50;;;;;10.34;78.69;99994.06;146603;571;46020;-81
2022/01/09 06:17:09;;;;;;;;;32.25;27.50;;;;;10.37;78.20;99989.00;146599;586;46016;-79
2022/01/09 06:20:01;;;;;;;;;35.00;29.00;;;;;10.43;78.52;99988.34;146601;572;46020;-81
2022/01/09 06:22:53;;;;;;;;;28.00;27.00;;;;;10.45;78.25;99985.84;146601;569;47010;-81
2022/01/09 06:25:46;;;;;;;;;28.75;21.75;;;;;10.46;78.36;99983.28;146606;588;45021;-81
2022/01/09 06:28:38;;;;;;;;;25.25;22.25;;;;;10.51;78.07;99983.50;146599;581;46026;-78
2022/01/09 06:31:30;;;;;;;;;39.25;34.50;;;;;10.52;78.04;99977.47;146599;689;46026;-78
2022/01/09 06:34:23;;;;;;;;;26.75;21.50;;;;;10.57;78.06;99981.13;146599;578;46010;-80
2022/01/09 06:37:15;;;;;;;;;30.75;24.75;;;;;10.65;78.11;99987.47;146601;617;46008;-87
2022/01/09 06:40:08;;;;;;;;;25.50;23.75;;;;;10.82;78.16;99977.78;146599;610;46917;-76
2022/01/09 06:43:01;;;;;;;;;23.25;19.75;;;;;11.08;77.72;99978.75;146603;569;46021;-76
2022/01/09 06:45:53;;;;;;;;;26.75;23.00;;;;;11.35;77.23;99971.09;146597;575;47010;-78
2022/01/09 06:48:46;;;;;;;;;26.00;20.50;;;;;11.66;76.92;99967.00;146600;657;46021;-75
2022/01/09 06:51:38;;;;;;;;;34.25;30.75;;;;;12.01;76.11;99966.50;146599;619;46916;-75
2022/01/09 06:54:30;;;;;;;;;36.25;32.00;;;;;12.44;74.96;99967.88;146602;580;46020;-76
2022/01/09 06:57:22;;;;;;;;;40.50;35.25;;;;;12.85;73.88;99968.28;146601;765;46017;-82
2022/01/09 07:00:17;;;;;;;;;47.25;39.00;;;;;12.54;72.86;99831.22;146605;577;46020;-85
2022/01/09 07:03:09;;;;;;;;;37.00;31.25;;;;;13.78;71.77;99959.62;146599;655;46011;-78
2022/01/09 07:06:02;;;;;;;;;31.00;29.25;;;;;14.20;69.72;99955.44;146606;577;45021;-76
2022/01/09 07:08:54;;;;;;;;;34.25;30.25;;;;;14.46;68.68;99949.13;146601;571;45916;-87
2022/01/09 07:11:46;;;;;;;;;56.75;44.50;;;;;14.49;67.91;99941.38;146602;584;46009;-87
2022/01/09 07:14:39;;;;;;;;;44.50;35.50;;;;;14.33;67.59;99945.34;146599;720;47010;-79
2022/01/09 07:17:31;;;;;;;;;38.25;30.00;;;;;14.05;68.46;99950.75;146600;576;46020;-77
2022/01/09 07:20:23;;;;;;;;;22.75;20.50;;;;;13.76;68.74;99937.84;146598;660;46010;-79
2022/01/09 07:23:15;;;;;;;;;19.25;19.00;;;;;13.75;70.14;99928.28;146601;609;46020;-76
2022/01/09 07:26:08;;;;;;;;;27.50;24.75;;;;;14.29;69.58;99926.97;146599;615;46026;-79
2022/01/09 07:29:00;;;;;;;;;31.75;27.75;;;;;15.10;68.45;99918.34;146602;647;46008;-78
2022/01/09 07:31:52;;;;;;;;;28.00;27.00;;;;;15.85;66.03;99906.69;146599;598;46010;-81
2022/01/09 07:34:44;;;;;;;;;26.75;24.00;;;;;16.20;63.94;99914.25;146604;589;46021;-80
2022/01/09 07:37:37;;;;;;;;;47.25;37.25;;;;;16.14;63.44;99922.88;146598;619;46032;-79
2022/01/09 07:40:29;;;;;;;;;47.50;38.50;;;;;15.84;64.46;99912.78;146605;704;46008;-78
2022/01/09 07:43:22;;;;;;;;;44.75;35.00;;;;;15.60;65.36;99918.41;146596;602;47010;-80
2022/01/09 07:46:14;;;;;;;;;55.00;42.00;;;;;15.30;65.69;99915.25;146600;780;46008;-78
2022/01/09 07:49:06;;;;;;;;;51.50;42.00;;;;;14.98;66.57;99912.88;146598;629;46917;-79
2022/01/09 07:51:58;;;;;;;;;47.75;37.50;;;;;14.76;67.31;99911.53;146602;572;46008;-80
2022/01/09 07:54:50;;;;;;;;;41.00;34.50;;;;;14.65;66.82;99921.75;146600;662;45916;-82
2022/01/09 07:57:43;;;;;;;;;46.00;36.75;;;;;14.61;67.52;99924.25;146603;609;46008;-81
2022/01/09 08:00:35;;;;;;;;;51.00;40.00;;;;;14.60;67.17;99925.97;146596;717;46012;-79
2022/01/09 08:03:27;;;;;;;;;60.25;46.25;;;;;14.58;68.37;99913.75;146603;625;46008;-85
2022/01/09 08:06:20;;;;;;;;;53.00;39.00;;;;;14.54;68.43;99915.41;146597;637;46016;-86
2022/01/09 08:09:12;;;;;;;;;47.00;38.25;;;;;14.59;68.14;99916.41;146604;582;45021;-86
2022/01/09 08:12:04;;;;;;;;;47.75;37.25;;;;;14.67;68.44;99906.12;146598;611;46010;-83
2022/01/09 08:14:57;;;;;;;;;43.50;35.75;;;;;14.81;69.00;99914.25;146604;563;46020;-82
2022/01/09 08:17:50;;;;;;;;;42.75;33.25;;;;;15.07;67.63;99913.06;146598;646;46916;-82
2022/01/09 08:20:42;;;;;;;;;44.75;35.50;;;;;15.30;66.44;99907.41;146602;626;46020;-75
2022/01/09 08:23:34;;;;;;;;;44.00;34.50;;;;;15.50;66.82;99902.56;146599;591;46012;-84
2022/01/09 08:26:26;;;;;;;;;54.50;43.00;;;;;15.76;66.69;99900.44;146603;679;47008;-84
2022/01/09 08:29:18;;;;;;;;;42.75;35.75;;;;;16.08;66.46;99894.00;146600;579;46016;-81
2022/01/09 08:32:13;;;;;;;;;45.00;35.25;;;;;16.45;65.50;99891.94;146603;602;45021;-82
2022/01/09 08:35:07;;;;;;;;;44.25;34.25;;;;;16.81;63.93;99890.69;146602;598;45916;-81
2022/01/09 08:37:59;;;;;;;;;48.25;37.75;;;;;17.13;63.85;99887.56;146603;658;46020;-81
2022/01/09 08:40:52;;;;;;;;;43.50;34.75;;;;;17.33;63.26;99890.44;146595;606;47916;-80
2022/01/09 08:43:44;;;;;;;;;34.50;30.75;;;;;17.43;62.27;99887.91;146599;563;46020;-75
2022/01/09 08:46:37;;;;;;;;;32.75;26.00;;;;;17.53;62.54;99881.88;146599;610;46017;-74
2022/01/09 08:49:29;;;;;;;;;32.50;29.00;;;;;17.69;61.10;99880.28;146603;584;46020;-74
2022/01/09 08:52:22;;;;;;;;;45.25;36.75;;;;;17.81;61.54;99871.69;146595;579;47916;-77
2022/01/09 08:55:14;;;;;;;;;42.00;33.75;;;;;17.91;61.15;99865.66;146604;646;46008;-76
2022/01/09 08:58:06;;;;;;;;;39.25;32.75;;;;;17.81;60.62;99865.56;146596;664;46016;-77
2022/01/09 09:00:59;;;;;;;;;33.50;31.00;;;;;17.52;60.59;99858.28;146601;589;46021;-78
2022/01/09 09:03:51;;;;;;;;;34.25;32.25;;;;;17.22;62.40;99862.34;146600;564;46016;-78
2022/01/09 09:06:44;;;;;;;;;35.25;29.00;;;;;16.97;62.78;99861.19;146604;598;46008;-81
2022/01/09 09:09:37;;;;;;;;;29.25;27.75;;;;;16.73;62.83;99864.41;146598;606;47010;-78
2022/01/09 09:12:29;;;;;;;;;24.25;22.00;;;;;16.48;63.29;99871.06;146600;579;46020;-75
2022/01/09 09:15:22;;;;;;;;;38.00;32.50;;;;;16.27;64.25;99862.91;146593;645;47916;-74
2022/01/09 09:18:14;;;;;;;;;30.00;28.50;;;;;16.10;64.26;99858.28;146604;566;46021;-75
2022/01/09 09:21:07;;;;;;;;;38.75;34.50;;;;;15.99;64.16;99859.88;146598;667;46016;-76
2022/01/09 09:23:59;;;;;;;;;42.00;34.25;;;;;15.79;64.15;99854.31;146604;574;46008;-74
2022/01/09 09:26:51;;;;;;;;;27.00;25.00;;;;;15.61;65.12;99857.47;146597;583;47010;-74
2022/01/09 09:29:44;;;;;;;;;25.75;25.25;;;;;15.53;65.70;99850.34;146603;650;46020;-74
2022/01/09 09:32:37;;;;;;;;;33.00;27.75;;;;;15.54;66.27;99852.97;146597;594;47010;-73
2022/01/09 09:35:29;;;;;;;;;27.75;24.25;;;;;15.62;66.32;99855.75;146603;574;46008;-73
2022/01/09 09:38:21;;;;;;;;;47.00;37.50;;;;;15.64;65.84;99859.28;146597;588;47010;-74
2022/01/09 09:41:13;;;;;;;;;53.50;40.75;;;;;15.56;66.35;99853.91;146600;623;46008;-73
2022/01/09 09:44:07;;;;;;;;;45.00;36.25;;;;;15.44;66.55;99851.06;146598;565;46016;-73
2022/01/09 09:47:00;;;;;;;;;38.25;34.00;;;;;15.29;66.80;99850.78;146601;701;46008;-74
2022/01/09 09:49:53;;;;;;;;;48.50;39.00;;;;;15.14;67.18;99839.22;146595;608;47010;-74
2022/01/09 09:52:46;;;;;;;;;61.50;48.00;;;;;15.04;67.19;99831.19;146603;597;46021;-76
2022/01/09 09:55:38;;;;;;;;;42.25;33.25;;;;;14.99;67.44;99833.72;146599;607;46016;-73
2022/01/09 09:58:31;;;;;;;;;41.25;34.00;;;;;14.95;67.82;99830.19;146602;565;46008;-76
2022/01/09 10:01:29;;;;;;;;;41.75;33.00;;;;;14.98;68.77;99822.41;146599;585;46017;-74
2022/01/09 10:04:22;;;;;;;;;40.75;34.50;;;;;15.07;68.95;99821.66;146603;760;46020;-74
2022/01/09 10:07:26;;;;;;;;;47.50;35.25;;;;;15.17;68.64;99814.88;146598;627;46916;-76
2022/01/09 10:10:21;;;;;;;;;41.75;33.50;;;;;15.25;68.11;99808.94;146602;613;46008;-72
2022/01/09 10:13:30;;;;;;;;;43.75;35.00;;;;;14.51;68.58;99651.88;146598;621;46016;-75
2022/01/09 10:16:23;;;;;;;;;41.75;34.50;;;;;15.43;66.69;99799.69;146604;624;45021;-74
2022/01/09 10:19:15;;;;;;;;;37.25;32.75;;;;;15.45;66.68;99801.47;146597;616;47010;-74
2022/01/09 10:22:08;;;;;;;;;39.50;31.75;;;;;15.45;67.68;99793.63;146602;612;46915;-74
2022/01/09 10:25:01;;;;;;;;;48.75;40.00;;;;;15.50;66.52;99792.81;146598;646;46010;-75
2022/01/09 10:27:55;;;;;;;;;33.25;28.75;;;;;15.52;67.70;99786.78;146601;565;46008;-74
2022/01/09 10:30:53;;;;;;;;;34.75;30.50;;;;;15.59;67.85;99788.63;146598;611;46033;-75
2022/01/09 10:33:59;;;;;;;;;36.25;31.25;;;;;15.66;67.80;99786.97;146603;577;46008;-74
2022/01/09 10:36:54;;;;;;;;;29.75;28.00;;;;;15.65;67.29;99783.50;146598;608;46017;-74
2022/01/09 10:39:48;;;;;;;;;31.50;27.75;;;;;15.61;66.72;99786.06;146601;592;46020;-73
2022/01/09 10:42:42;;;;;;;;;37.00;32.75;;;;;15.51;67.18;99774.53;146600;597;46016;-74
2022/01/09 10:45:34;;;;;;;;;48.00;39.75;;;;;15.39;66.40;99771.72;146605;620;46008;-74
2022/01/09 10:48:28;;;;;;;;;42.75;35.00;;;;;15.25;67.69;99763.69;146599;610;46010;-74
2022/01/09 10:51:20;;;;;;;;;48.00;40.00;;;;;15.17;68.29;99762.66;146603;708;46021;-74
2022/01/09 10:54:12;;;;;;;;;50.50;38.75;;;;;15.13;68.50;99759.13;146601;636;46016;-77
2022/01/09 10:57:19;;;;;;;;;49.50;38.50;;;;;15.06;67.92;99766.84;146603;595;46020;-76
2022/01/09 11:00:18;;;;;;;;;38.25;33.50;;;;;14.97;68.14;99772.75;146598;622;46016;-74
2022/01/09 11:03:10;;;;;;;;;48.00;37.50;;;;;14.83;68.45;99759.47;146600;602;47008;-74
2022/01/09 11:06:05;;;;;;;;;54.75;42.75;;;;;14.71;68.88;99760.09;146600;570;46010;-74
2022/01/09 11:08:58;;;;;;;;;53.75;44.25;;;;;14.59;69.25;99759.00;146603;579;46008;-74
2022/01/09 11:11:53;;;;;;;;;50.25;39.75;;;;;14.50;69.31;99759.66;146597;601;46016;-74
2022/01/09 11:14:48;;;;;;;;;52.25;41.00;;;;;14.46;69.49;99748.28;146601;605;46008;-74
2022/01/09 11:17:42;;;;;;;;;54.75;43.00;;;;;14.49;69.77;99743.13;146601;646;46916;-74
2022/01/09 11:20:34;;;;;;;;;64.00;48.00;;;;;14.54;69.70;99745.84;146602;566;46021;-74
2022/01/09 11:23:32;;;;;;;;;74.25;65.50;;;;;14.64;69.16;99739.97;146600;650;46016;-74
2022/01/09 11:26:43;;;;;;;;;76.00;63.00;;;;;14.73;69.16;99734.03;146603;630;46008;-74
2022/01/09 11:29:47;;;;;;;;;73.00;57.25;;;;;14.84;68.81;99721.19;146599;580;46016;-75
2022/01/09 11:33:05;;;;;;;;;63.75;49.00;;;;;15.00;68.67;99716.25;146600;608;47008;-72
2022/01/09 11:36:16;;;;;;;;;58.75;47.00;;;;;15.19;68.13;99712.22;146599;570;46012;-72
2022/01/09 11:39:15;;;;;;;;;58.50;44.00;;;;;15.35;67.84;99713.34;146603;569;46020;-72
2022/01/09 11:42:16;;;;;;;;;58.00;45.50;;;;;15.40;67.94;99716.03;146601;650;46017;-74
2022/01/09 11:45:08;;;;;;;;;47.25;36.75;;;;;15.37;67.23;99709.03;146605;711;47008;-73
2022/01/09 11:48:01;;;;;;;;;38.50;32.50;;;;;15.32;66.65;99708.06;146605;706;46016;-73
2022/01/09 11:51:16;;;;;;;;;43.25;34.75;;;;;15.23;67.13;99695.78;146603;611;46021;-73
2022/01/09 11:54:16;;;;;;;;;40.00;33.25;;;;;15.18;67.61;99700.03;146604;589;46016;-73
2022/01/09 11:57:10;;;;;;;;;45.00;36.75;;;;;15.11;68.20;99702.50;146606;606;46008;-74
2022/01/09 12:00:02;;;;;;;;;48.25;38.25;;;;;14.98;67.18;99697.09;146601;630;46016;-72
2022/01/09 12:02:54;;;;;;;;;37.25;31.50;;;;;14.93;67.94;99703.09;146607;616;45020;-72
2022/01/09 12:06:16;;;;;;;;;54.25;42.75;;;;;14.83;68.17;99695.94;146603;644;46028;-72
2022/01/09 12:09:09;;;;;;;;;48.75;39.50;;;;;14.74;68.66;99694.06;146603;577;46020;-72
2022/01/09 12:12:15;;;;;;;;;53.50;41.50;;;;;14.62;68.04;99693.84;146602;569;46916;-73
2022/01/09 12:15:11;;;;;;;;;45.75;38.00;;;;;14.49;69.19;99690.09;146610;602;46008;-72
2022/01/09 12:18:04;;;;;;;;;48.25;37.50;;;;;14.41;69.04;99686.44;146601;623;46010;-73
2022/01/09 12:20:56;;;;;;;;;49.25;37.75;;;;;14.33;70.10;99691.53;146607;585;46012;-72
2022/01/09 12:23:48;;;;;;;;;45.00;36.00;;;;;14.28;69.85;99683.59;146606;666;46012;-73
2022/01/09 12:26:40;;;;;;;;;50.00;40.00;;;;;14.26;70.28;99679.19;146608;596;46008;-74
2022/01/09 12:29:49;;;;;;;;;45.25;35.00;;;;;14.24;69.90;99678.31;146602;576;47917;-73
2022/01/09 12:32:49;;;;;;;;;40.75;34.50;;;;;14.22;69.66;99673.03;146602;631;47012;-72
2022/01/09 12:35:50;;;;;;;;;51.25;43.00;;;;;14.20;70.14;99671.25;146602;570;46017;-73
2022/01/09 12:38:51;;;;;;;;;54.25;44.00;;;;;14.17;70.34;99672.06;146602;577;48914;-73
2022/01/09 12:41:44;;;;;;;;;52.25;42.50;;;;;14.10;70.28;99673.66;146604;564;46017;-72
2022/01/09 12:44:36;;;;;;;;;56.00;46.00;;;;;14.03;71.43;99674.41;146604;611;46020;-74
2022/01/09 12:47:29;;;;;;;;;54.50;43.25;;;;;13.96;72.25;99676.88;146604;608;46010;-72
2022/01/09 12:50:32;;;;;;;;;72.00;58.00;;;;;12.99;72.84;99518.53;146607;635;45021;-72
2022/01/09 12:53:30;;;;;;;;;94.00;83.00;;;;;13.84;73.08;99682.69;146602;663;46016;-72
2022/01/09 12:56:25;;;;;;;;;64.50;50.50;;;;;13.80;73.41;99678.25;146611;688;46021;-72
2022/01/09 12:59:18;;;;;;;;;71.50;60.00;;;;;13.77;74.10;99673.87;146605;670;46016;-72
2022/01/09 13:02:12;;;;;;;;;54.50;43.00;;;;;13.73;73.46;99679.84;146607;661;46020;-73
2022/01/09 13:05:06;;;;;;;;;66.00;51.50;;;;;13.71;73.98;99680.69;146603;576;46012;-72
2022/01/09 13:08:05;;;;;;;;;56.75;45.50;;;;;13.68;73.80;99681.50;146603;563;46020;-73
2022/01/09 13:11:06;;;;;;;;;48.50;40.25;;;;;13.68;73.91;99671.06;146605;627;46029;-72
2022/01/09 13:14:00;;;;;;;;;72.25;59.25;;;;;13.74;73.53;99668.59;146608;613;46008;-72
2022/01/09 13:16:53;;;;;;;;;63.25;50.50;;;;;13.84;73.42;99672.28;146604;563;45916;-73
2022/01/09 13:19:46;;;;;;;;;57.00;45.75;;;;;13.98;73.33;99667.34;146608;588;45914;-72